sensor_id;sensor_type;location;lat;lon;timestamp;pressure;altitude;pressure_sealevel;temperature;humidity
3206;BME280;1615;53.602;11.418;2023-05-03T00:02:25;102333.81;;;6.42;100.00
3206;BME280;1615;53.602;11.418;2023-05-03T00:04:53;102346.03;;;6.40;100.00
3206;BME280;1615;53.602;11.418;2023-05-03T00:07:19;102334.53;;;6.38;100.00
3206;BME280;1615;53.602;11.418;2023-05-03T00:09:46;102342.69;;;6.38;100.00
3206;BME280;1615;53.602;11.418;2023-05-03T00:12:14;102241.56;;;5.80;100.00
3206;BME280;1615;53.602;11.418;2023-05-03T00:14:39;102341.47;;;6.34;100.00
3206;BME280;1615;53.602;11.418;2023-05-03T00:17:04;102294.19;;;5.92;100.00
3206;BME280;1615;53.602;11.418;2023-05-03T00:19:30;102339.81;;;6.15;100.00
3206;BME280;1615;53.602;11.418;2023-05-03T00:21:58;102345.09;;;6.10;100.00
3206;BME280;1615;53.602;11.418;2023-05-03T00:24:23;102218.19;;;5.30;100.00
3206;BME280;1615;53.602;11.418;2023-05-03T00:26:49;102353.44;;;6.15;100.00
3206;BME280;1615;53.602;11.418;2023-05-03T00:29:14;102352.97;;;6.18;100.00
3206;BME280;1615;53.602;11.418;2023-05-03T00:31:42;102283.16;;;5.63;100.00
3206;BME280;1615;53.602;11.418;2023-05-03T00:34:08;102186.97;;;5.15;100.00
3206;BME280;1615;53.602;11.418;2023-05-03T00:36:33;102350.06;;;6.13;100.00
3206;BME280;1615;53.602;11.418;2023-05-03T00:38:59;102351.78;;;6.14;100.00
3206;BME280;1615;53.602;11.418;2023-05-03T00:41:24;102367.69;;;6.10;100.00
3206;BME280;1615;53.602;11.418;2023-05-03T00:43:50;102348.88;;;6.09;100.00
3206;BME280;1615;53.602;11.418;2023-05-03T00:46:15;102350.38;;;6.05;100.00
3206;BME280;1615;53.602;11.418;2023-05-03T00:48:40;102231.13;;;5.35;100.00
3206;BME280;1615;53.602;11.418;2023-05-03T00:51:07;102350.06;;;6.13;100.00
3206;BME280;1615;53.602;11.418;2023-05-03T00:53:32;102340.03;;;6.13;100.00
3206;BME280;1615;53.602;11.418;2023-05-03T00:55:59;102341.31;;;6.11;100.00
3206;BME280;1615;53.602;11.418;2023-05-03T00:58:25;102347.66;;;6.05;100.00
3206;BME280;1615;53.602;11.418;2023-05-03T01:00:50;102343.50;;;6.02;100.00
3206;BME280;1615;53.602;11.418;2023-05-03T01:03:16;102348.94;;;6.02;100.00
3206;BME280;1615;53.602;11.418;2023-05-03T01:11:19;102348.56;;;5.99;100.00
3206;BME280;1615;53.602;11.418;2023-05-03T01:16:59;102356.09;;;5.97;100.00
3206;BME280;1615;53.602;11.418;2023-05-03T01:19:36;102357.38;;;5.94;100.00
3206;BME280;1615;53.602;11.418;2023-05-03T01:25:10;102357.00;;;5.91;100.00
3206;BME280;1615;53.602;11.418;2023-05-03T01:27:37;102225.91;;;5.09;100.00
3206;BME280;1615;53.602;11.418;2023-05-03T01:30:10;102355.34;;;5.90;100.00
3206;BME280;1615;53.602;11.418;2023-05-03T01:35:17;102359.56;;;5.86;100.00
3206;BME280;1615;53.602;11.418;2023-05-03T01:37:46;102359.41;;;5.81;100.00
3206;BME280;1615;53.602;11.418;2023-05-03T01:40:13;102361.31;;;5.80;100.00
3206;BME280;1615;53.602;11.418;2023-05-03T01:42:41;102366.09;;;5.78;100.00
3206;BME280;1615;53.602;11.418;2023-05-03T01:45:07;102333.00;;;5.57;100.00
3206;BME280;1615;53.602;11.418;2023-05-03T01:47:32;102365.50;;;5.76;100.00
3206;BME280;1615;53.602;11.418;2023-05-03T01:49:58;102371.78;;;5.77;100.00
3206;BME280;1615;53.602;11.418;2023-05-03T01:52:23;102370.94;;;5.76;100.00
3206;BME280;1615;53.602;11.418;2023-05-03T01:54:48;102373.53;;;5.65;100.00
3206;BME280;1615;53.602;11.418;2023-05-03T01:57:14;102374.88;;;5.56;100.00
3206;BME280;1615;53.602;11.418;2023-05-03T01:59:39;102385.38;;;5.52;100.00
3206;BME280;1615;53.602;11.418;2023-05-03T02:02:04;102289.13;;;4.98;100.00
3206;BME280;1615;53.602;11.418;2023-05-03T02:04:30;102372.81;;;5.51;100.00
3206;BME280;1615;53.602;11.418;2023-05-03T02:06:55;102375.34;;;5.46;100.00
3206;BME280;1615;53.602;11.418;2023-05-03T02:09:21;102370.97;;;5.45;100.00
3206;BME280;1615;53.602;11.418;2023-05-03T02:11:46;102381.63;;;5.47;100.00
3206;BME280;1615;53.602;11.418;2023-05-03T02:14:12;102376.19;;;5.47;100.00
3206;BME280;1615;53.602;11.418;2023-05-03T02:16:37;102379.50;;;5.49;100.00
3206;BME280;1615;53.602;11.418;2023-05-03T02:19:03;102390.63;;;5.47;100.00
3206;BME280;1615;53.602;11.418;2023-05-03T02:21:28;102397.53;;;5.50;100.00
3206;BME280;1615;53.602;11.418;2023-05-03T02:23:53;102487.91;;;5.45;100.00
3206;BME280;1615;53.602;11.418;2023-05-03T02:26:19;102410.09;;;5.44;100.00
3206;BME280;1615;53.602;11.418;2023-05-03T02:28:45;102407.16;;;5.46;100.00
3206;BME280;1615;53.602;11.418;2023-05-03T02:31:10;102320.09;;;4.97;100.00
3206;BME280;1615;53.602;11.418;2023-05-03T02:33:37;102394.00;;;5.43;100.00
3206;BME280;1615;53.602;11.418;2023-05-03T02:36:03;102394.25;;;5.41;100.00
3206;BME280;1615;53.602;11.418;2023-05-03T02:38:28;102285.53;;;4.73;100.00
3206;BME280;1615;53.602;11.418;2023-05-03T02:40:54;102393.38;;;5.41;100.00
3206;BME280;1615;53.602;11.418;2023-05-03T02:43:19;102393.00;;;5.37;100.00
3206;BME280;1615;53.602;11.418;2023-05-03T02:45:44;102396.53;;;5.38;100.00
3206;BME280;1615;53.602;11.418;2023-05-03T02:48:10;102400.78;;;5.34;100.00
3206;BME280;1615;53.602;11.418;2023-05-03T02:50:35;102398.06;;;5.34;100.00
3206;BME280;1615;53.602;11.418;2023-05-03T02:53:00;102392.63;;;5.34;100.00
3206;BME280;1615;53.602;11.418;2023-05-03T02:55:26;102407.47;;;5.31;100.00
3206;BME280;1615;53.602;11.418;2023-05-03T02:57:51;102410.41;;;5.30;100.00
3206;BME280;1615;53.602;11.418;2023-05-03T03:00:17;102411.84;;;5.32;100.00
3206;BME280;1615;53.602;11.418;2023-05-03T03:02:43;102411.88;;;5.26;100.00
3206;BME280;1615;53.602;11.418;2023-05-03T03:05:08;102410.22;;;5.25;100.00
3206;BME280;1615;53.602;11.418;2023-05-03T03:07:34;102411.88;;;5.26;100.00
3206;BME280;1615;53.602;11.418;2023-05-03T03:09:59;102406.44;;;5.26;100.00
3206;BME280;1615;53.602;11.418;2023-05-03T03:12:24;102407.09;;;5.28;100.00
3206;BME280;1615;53.602;11.418;2023-05-03T03:14:51;102416.06;;;5.28;100.00
3206;BME280;1615;53.602;11.418;2023-05-03T03:17:17;102416.44;;;5.32;100.00
3206;BME280;1615;53.602;11.418;2023-05-03T03:19:42;102412.28;;;5.29;100.00
3206;BME280;1615;53.602;11.418;2023-05-03T03:22:07;102409.56;;;5.29;100.00
3206;BME280;1615;53.602;11.418;2023-05-03T03:24:33;102416.44;;;5.32;100.00
3206;BME280;1615;53.602;11.418;2023-05-03T03:26:58;102413.13;;;5.30;100.00
3206;BME280;1615;53.602;11.418;2023-05-03T03:29:23;102338.97;;;4.79;100.00
3206;BME280;1615;53.602;11.418;2023-05-03T03:31:49;102419.44;;;5.24;100.00
3206;BME280;1615;53.602;11.418;2023-05-03T03:34:14;102420.50;;;5.23;100.00
3206;BME280;1615;53.602;11.418;2023-05-03T03:36:39;102399.88;;;5.09;100.00
3206;BME280;1615;53.602;11.418;2023-05-03T03:39:05;102397.94;;;5.16;100.00
3206;BME280;1615;53.602;11.418;2023-05-03T03:41:32;102416.44;;;5.32;100.00
3206;BME280;1615;53.602;11.418;2023-05-03T03:43:57;102419.81;;;5.34;100.00
3206;BME280;1615;53.602;11.418;2023-05-03T03:46:22;102415.56;;;5.38;100.00
3206;BME280;1615;53.602;11.418;2023-05-03T03:48:48;102342.75;;;4.78;100.00
3206;BME280;1615;53.602;11.418;2023-05-03T03:51:14;102420.59;;;5.41;100.00
3206;BME280;1615;53.602;11.418;2023-05-03T03:53:40;102418.47;;;5.43;100.00
3206;BME280;1615;53.602;11.418;2023-05-03T03:56:06;102427.69;;;5.42;100.00
3206;BME280;1615;53.602;11.418;2023-05-03T03:58:32;102426.81;;;5.48;100.00
3206;BME280;1615;53.602;11.418;2023-05-03T04:00:57;102418.03;;;5.46;100.00
3206;BME280;1615;53.602;11.418;2023-05-03T04:03:24;102419.03;;;5.51;100.00
3206;BME280;1615;53.602;11.418;2023-05-03T04:05:49;102429.88;;;5.58;100.00
3206;BME280;1615;53.602;11.418;2023-05-03T04:08:15;102425.06;;;5.60;100.00
3206;BME280;1615;53.602;11.418;2023-05-03T04:10:40;102365.09;;;5.17;100.00
3206;BME280;1615;53.602;11.418;2023-05-03T04:13:05;102431.72;;;5.64;100.00
3206;BME280;1615;53.602;11.418;2023-05-03T04:15:31;102405.69;;;5.50;100.00
3206;BME280;1615;53.602;11.418;2023-05-03T04:17:56;102432.75;;;5.69;100.00
3206;BME280;1615;53.602;11.418;2023-05-03T04:20:21;102438.56;;;5.73;100.00
3206;BME280;1615;53.602;11.418;2023-05-03T04:22:47;102431.53;;;5.59;100.00
3206;BME280;1615;53.602;11.418;2023-05-03T04:25:12;102450.50;;;5.72;100.00
3206;BME280;1615;53.602;11.418;2023-05-03T04:27:38;102443.34;;;5.77;100.00
3206;BME280;1615;53.602;11.418;2023-05-03T04:30:04;102334.22;;;5.12;100.00
3206;BME280;1615;53.602;11.418;2023-05-03T04:32:30;102447.09;;;5.83;100.00
3206;BME280;1615;53.602;11.418;2023-05-03T04:35:01;102333.31;;;5.18;100.00
3206;BME280;1615;53.602;11.418;2023-05-03T04:37:28;102443.72;;;5.87;100.00
3206;BME280;1615;53.602;11.418;2023-05-03T04:39:53;102450.00;;;5.88;100.00
3206;BME280;1615;53.602;11.418;2023-05-03T04:42:18;102450.34;;;5.98;100.00
3206;BME280;1615;53.602;11.418;2023-05-03T04:44:44;102440.22;;;6.05;100.00
3206;BME280;1615;53.602;11.418;2023-05-03T04:47:10;102449.78;;;6.14;100.00
3206;BME280;1615;53.602;11.418;2023-05-03T04:49:35;102433.28;;;6.09;100.00
3206;BME280;1615;53.602;11.418;2023-05-03T04:52:01;102454.34;;;6.20;100.00
3206;BME280;1615;53.602;11.418;2023-05-03T04:54:27;102329.78;;;5.42;100.00
3206;BME280;1615;53.602;11.418;2023-05-03T04:56:53;102458.16;;;6.37;100.00
3206;BME280;1615;53.602;11.418;2023-05-03T04:59:19;102460.72;;;6.50;100.00
3206;BME280;1615;53.602;11.418;2023-05-03T05:01:44;102332.28;;;5.92;100.00
3206;BME280;1615;53.602;11.418;2023-05-03T05:04:09;102455.94;;;6.88;100.00
3206;BME280;1615;53.602;11.418;2023-05-03T05:06:35;102456.06;;;6.93;100.00
3206;BME280;1615;53.602;11.418;2023-05-03T05:09:00;102357.22;;;6.50;100.00
3206;BME280;1615;53.602;11.418;2023-05-03T05:11:25;102452.41;;;7.17;100.00
3206;BME280;1615;53.602;11.418;2023-05-03T05:13:51;102460.19;;;7.31;100.00
3206;BME280;1615;53.602;11.418;2023-05-03T05:16:16;102458.72;;;7.47;100.00
3206;BME280;1615;53.602;11.418;2023-05-03T05:18:43;102462.22;;;7.65;100.00
3206;BME280;1615;53.602;11.418;2023-05-03T05:21:08;102374.41;;;7.27;100.00
3206;BME280;1615;53.602;11.418;2023-05-03T05:23:34;102460.63;;;7.99;100.00
3206;BME280;1615;53.602;11.418;2023-05-03T05:26:00;102362.09;;;7.36;100.00
3206;BME280;1615;53.602;11.418;2023-05-03T05:28:26;102452.44;;;7.99;100.00
3206;BME280;1615;53.602;11.418;2023-05-03T05:30:52;102466.22;;;8.04;100.00
3206;BME280;1615;53.602;11.418;2023-05-03T05:33:17;102441.63;;;8.04;100.00
3206;BME280;1615;53.602;11.418;2023-05-03T05:35:44;102468.31;;;8.43;100.00
3206;BME280;1615;53.602;11.418;2023-05-03T05:38:10;102421.50;;;8.28;100.00
3206;BME280;1615;53.602;11.418;2023-05-03T05:40:36;102472.31;;;8.86;100.00
3206;BME280;1615;53.602;11.418;2023-05-03T05:43:01;102342.38;;;8.21;100.00
3206;BME280;1615;53.602;11.418;2023-05-03T05:45:27;102474.59;;;9.29;100.00
3206;BME280;1615;53.602;11.418;2023-05-03T05:47:52;102483.56;;;9.52;100.00
3206;BME280;1615;53.602;11.418;2023-05-03T05:50:17;102381.25;;;9.14;100.00
3206;BME280;1615;53.602;11.418;2023-05-03T05:52:43;102472.53;;;9.92;100.00
3206;BME280;1615;53.602;11.418;2023-05-03T05:55:08;102473.88;;;10.06;100.00
3206;BME280;1615;53.602;11.418;2023-05-03T05:57:37;102476.53;;;10.17;100.00
3206;BME280;1615;53.602;11.418;2023-05-03T06:00:03;102475.88;;;10.27;100.00
3206;BME280;1615;53.602;11.418;2023-05-03T06:02:33;102473.38;;;10.25;100.00
3206;BME280;1615;53.602;11.418;2023-05-03T06:04:59;102472.81;;;10.40;100.00
3206;BME280;1615;53.602;11.418;2023-05-03T06:07:25;102479.84;;;10.52;100.00
3206;BME280;1615;53.602;11.418;2023-05-03T06:09:50;102473.69;;;10.62;100.00
3206;BME280;1615;53.602;11.418;2023-05-03T06:12:16;102483.66;;;10.68;100.00
3206;BME280;1615;53.602;11.418;2023-05-03T06:14:41;102487.59;;;10.77;100.00
3206;BME280;1615;53.602;11.418;2023-05-03T06:17:07;102489.47;;;10.93;100.00
3206;BME280;1615;53.602;11.418;2023-05-03T06:19:32;102484.88;;;11.15;100.00
3206;BME280;1615;53.602;11.418;2023-05-03T06:21:57;102489.56;;;11.41;100.00
3206;BME280;1615;53.602;11.418;2023-05-03T06:24:22;102488.16;;;11.60;100.00
3206;BME280;1615;53.602;11.418;2023-05-03T06:26:48;102488.16;;;11.60;100.00
3206;BME280;1615;53.602;11.418;2023-05-03T06:29:13;102453.81;;;11.36;100.00
3206;BME280;1615;53.602;11.418;2023-05-03T06:31:38;102497.97;;;11.56;100.00
3206;BME280;1615;53.602;11.418;2023-05-03T06:34:05;102498.69;;;11.46;100.00
3206;BME280;1615;53.602;11.418;2023-05-03T06:36:31;102374.97;;;10.62;100.00
3206;BME280;1615;53.602;11.418;2023-05-03T06:38:57;102446.03;;;10.85;100.00
3206;BME280;1615;53.602;11.418;2023-05-03T06:41:22;102486.75;;;10.93;100.00
3206;BME280;1615;53.602;11.418;2023-05-03T06:43:47;102499.16;;;11.17;100.00
3206;BME280;1615;53.602;11.418;2023-05-03T06:46:13;102501.97;;;11.22;100.00
3206;BME280;1615;53.602;11.418;2023-05-03T06:48:38;102513.53;;;10.86;100.00
3206;BME280;1615;53.602;11.418;2023-05-03T06:51:03;102337.19;;;9.76;100.00
3206;BME280;1615;53.602;11.418;2023-05-03T06:53:29;102506.00;;;10.98;100.00
3206;BME280;1615;53.602;11.418;2023-05-03T06:55:54;102502.84;;;11.06;100.00
3206;BME280;1615;53.602;11.418;2023-05-03T06:58:20;102412.19;;;10.58;100.00
3206;BME280;1615;53.602;11.418;2023-05-03T07:00:45;102498.66;;;11.20;100.00
3206;BME280;1615;53.602;11.418;2023-05-03T07:03:10;102500.66;;;11.08;100.00
3206;BME280;1615;53.602;11.418;2023-05-03T07:05:36;102479.59;;;10.92;100.00
3206;BME280;1615;53.602;11.418;2023-05-03T07:08:01;102402.38;;;10.62;100.00
3206;BME280;1615;53.602;11.418;2023-05-03T07:10:27;102506.16;;;11.51;100.00
3206;BME280;1615;53.602;11.418;2023-05-03T07:12:55;102496.84;;;11.52;100.00
3206;BME280;1615;53.602;11.418;2023-05-03T07:15:20;102492.69;;;11.71;100.00
3206;BME280;1615;53.602;11.418;2023-05-03T07:17:45;102496.03;;;11.78;100.00
3206;BME280;1615;53.602;11.418;2023-05-03T07:20:11;102493.47;;;11.66;100.00
3206;BME280;1615;53.602;11.418;2023-05-03T07:22:36;102488.22;;;11.91;100.00
3206;BME280;1615;53.602;11.418;2023-05-03T07:25:02;102493.69;;;12.18;100.00
3206;BME280;1615;53.602;11.418;2023-05-03T07:27:27;102491.47;;;12.15;100.00
3206;BME280;1615;53.602;11.418;2023-05-03T07:29:52;102490.41;;;12.21;100.00
3206;BME280;1615;53.602;11.418;2023-05-03T07:32:18;102492.19;;;12.37;100.00
3206;BME280;1615;53.602;11.418;2023-05-03T07:34:43;102487.41;;;12.54;100.00
3206;BME280;1615;53.602;11.418;2023-05-03T07:37:08;102480.88;;;12.65;100.00
3206;BME280;1615;53.602;11.418;2023-05-03T07:39:34;102461.09;;;12.73;100.00
3206;BME280;1615;53.602;11.418;2023-05-03T07:42:00;102385.31;;;12.14;100.00
3206;BME280;1615;53.602;11.418;2023-05-03T07:44:26;102492.22;;;12.42;100.00
3206;BME280;1615;53.602;11.418;2023-05-03T07:46:51;102487.94;;;12.56;100.00
3206;BME280;1615;53.602;11.418;2023-05-03T07:49:16;102492.94;;;12.59;100.00
3206;BME280;1615;53.602;11.418;2023-05-03T07:51:42;102421.03;;;12.09;100.00
3206;BME280;1615;53.602;11.418;2023-05-03T07:54:07;102487.44;;;12.59;100.00
3206;BME280;1615;53.602;11.418;2023-05-03T07:56:33;102481.00;;;12.48;100.00
3206;BME280;1615;53.602;11.418;2023-05-03T07:58:58;102480.72;;;12.45;100.00
3206;BME280;1615;53.602;11.418;2023-05-03T08:01:24;102482.66;;;12.13;100.00
3206;BME280;1615;53.602;11.418;2023-05-03T08:03:52;102485.25;;;12.24;100.00
3206;BME280;1615;53.602;11.418;2023-05-03T08:06:17;102493.91;;;12.43;100.00
3206;BME280;1615;53.602;11.418;2023-05-03T08:08:43;102402.19;;;12.27;100.00
3206;BME280;1615;53.602;11.418;2023-05-03T08:11:09;102435.13;;;12.54;99.74
3206;BME280;1615;53.602;11.418;2023-05-03T08:13:37;102493.13;;;12.89;97.16
3206;BME280;1615;53.602;11.418;2023-05-03T08:16:03;102464.56;;;12.58;95.34
3206;BME280;1615;53.602;11.418;2023-05-03T08:18:29;102484.59;;;12.49;94.95
3206;BME280;1615;53.602;11.418;2023-05-03T08:20:55;102491.13;;;12.38;93.67
3206;BME280;1615;53.602;11.418;2023-05-03T08:23:20;102471.84;;;12.33;92.36
3206;BME280;1615;53.602;11.418;2023-05-03T08:25:46;102490.81;;;12.71;92.69
3206;BME280;1615;53.602;11.418;2023-05-03T08:28:12;102405.28;;;12.36;97.55
3206;BME280;1615;53.602;11.418;2023-05-03T08:30:37;102497.41;;;13.11;97.32
3206;BME280;1615;53.602;11.418;2023-05-03T08:33:02;102475.13;;;13.18;98.86
3206;BME280;1615;53.602;11.418;2023-05-03T08:35:28;102486.78;;;13.35;99.63
3206;BME280;1615;53.602;11.418;2023-05-03T08:37:54;102492.59;;;13.43;99.65
3206;BME280;1615;53.602;11.418;2023-05-03T08:40:20;102494.00;;;13.56;98.33
3206;BME280;1615;53.602;11.418;2023-05-03T08:42:46;102479.41;;;13.60;93.63
3206;BME280;1615;53.602;11.418;2023-05-03T08:45:13;102495.72;;;13.77;95.22
3206;BME280;1615;53.602;11.418;2023-05-03T08:47:40;102425.03;;;13.31;94.07
3206;BME280;1615;53.602;11.418;2023-05-03T08:50:08;102493.47;;;13.69;94.97
3206;BME280;1615;53.602;11.418;2023-05-03T08:52:34;102502.88;;;13.73;96.80
3206;BME280;1615;53.602;11.418;2023-05-03T08:54:59;102509.44;;;13.57;94.79
3206;BME280;1615;53.602;11.418;2023-05-03T08:57:26;102512.72;;;13.44;89.95
3206;BME280;1615;53.602;11.418;2023-05-03T08:59:52;102439.25;;;13.03;87.04
3206;BME280;1615;53.602;11.418;2023-05-03T09:02:18;102518.88;;;13.81;89.08
3206;BME280;1615;53.602;11.418;2023-05-03T09:04:44;102513.91;;;13.78;85.08
3206;BME280;1615;53.602;11.418;2023-05-03T09:07:11;102509.22;;;13.88;81.88
3206;BME280;1615;53.602;11.418;2023-05-03T09:09:37;102511.66;;;13.70;79.47
3206;BME280;1615;53.602;11.418;2023-05-03T09:12:03;102511.19;;;14.13;84.05
3206;BME280;1615;53.602;11.418;2023-05-03T09:14:29;102504.06;;;14.22;84.09
3206;BME280;1615;53.602;11.418;2023-05-03T09:16:54;102508.50;;;14.33;83.19
3206;BME280;1615;53.602;11.418;2023-05-03T09:19:20;102508.75;;;14.36;84.58
3206;BME280;1615;53.602;11.418;2023-05-03T09:21:46;102515.69;;;14.24;88.40
3206;BME280;1615;53.602;11.418;2023-05-03T09:24:19;102522.25;;;14.08;89.95
3206;BME280;1615;53.602;11.418;2023-05-03T09:26:46;102516.72;;;14.03;89.74
3206;BME280;1615;53.602;11.418;2023-05-03T09:29:31;102523.91;;;14.14;88.83
3206;BME280;1615;53.602;11.418;2023-05-03T09:31:59;102526.38;;;14.05;83.85
3206;BME280;1615;53.602;11.418;2023-05-03T09:34:25;102394.19;;;13.29;81.38
3206;BME280;1615;53.602;11.418;2023-05-03T09:36:50;102520.63;;;14.27;77.88
3206;BME280;1615;53.602;11.418;2023-05-03T09:39:17;102527.28;;;14.46;75.16
3206;BME280;1615;53.602;11.418;2023-05-03T09:41:43;102535.56;;;14.51;73.44
3206;BME280;1615;53.602;11.418;2023-05-03T09:44:08;102525.84;;;14.68;73.05
3206;BME280;1615;53.602;11.418;2023-05-03T09:46:34;102512.91;;;14.59;78.74
3206;BME280;1615;53.602;11.418;2023-05-03T09:49:01;102532.22;;;14.64;78.65
3206;BME280;1615;53.602;11.418;2023-05-03T09:51:28;102526.44;;;14.55;79.51
3206;BME280;1615;53.602;11.418;2023-05-03T09:53:55;102520.91;;;14.55;79.07
3206;BME280;1615;53.602;11.418;2023-05-03T09:56:20;102535.25;;;14.67;80.05
3206;BME280;1615;53.602;11.418;2023-05-03T09:58:53;102509.88;;;14.65;76.56
3206;BME280;1615;53.602;11.418;2023-05-03T10:01:19;102484.16;;;14.80;75.43
3206;BME280;1615;53.602;11.418;2023-05-03T10:03:48;102460.44;;;14.74;71.86
3206;BME280;1615;53.602;11.418;2023-05-03T10:06:26;102458.75;;;14.88;71.02
3206;BME280;1615;53.602;11.418;2023-05-03T10:11:36;102510.59;;;15.06;73.64
3206;BME280;1615;53.602;11.418;2023-05-03T10:14:03;102385.44;;;14.27;75.82
3206;BME280;1615;53.602;11.418;2023-05-03T10:16:34;102507.03;;;15.00;75.58
3206;BME280;1615;53.602;11.418;2023-05-03T10:19:16;102513.91;;;15.08;70.82
3206;BME280;1615;53.602;11.418;2023-05-03T10:21:54;102504.78;;;15.12;67.89
3206;BME280;1615;53.602;11.418;2023-05-03T10:24:23;102500.94;;;15.08;66.47
3206;BME280;1615;53.602;11.418;2023-05-03T10:26:50;102503.41;;;15.15;66.43
3206;BME280;1615;53.602;11.418;2023-05-03T10:32:04;102465.94;;;14.74;69.14
3206;BME280;1615;53.602;11.418;2023-05-03T10:34:31;102516.16;;;14.96;72.91
3206;BME280;1615;53.602;11.418;2023-05-03T10:37:07;102362.84;;;14.25;71.19
3206;BME280;1615;53.602;11.418;2023-05-03T10:39:32;102389.28;;;14.46;71.83
3206;BME280;1615;53.602;11.418;2023-05-03T10:44:53;102512.44;;;15.40;65.75
3206;BME280;1615;53.602;11.418;2023-05-03T10:47:20;102502.16;;;15.51;61.36
3206;BME280;1615;53.602;11.418;2023-05-03T10:55:16;102490.72;;;16.16;56.79
3206;BME280;1615;53.602;11.418;2023-05-03T10:57:43;102135.50;;;14.26;59.78
3206;BME280;1615;53.602;11.418;2023-05-03T11:05:42;102488.03;;;16.39;63.33
3206;BME280;1615;53.602;11.418;2023-05-03T11:10:38;102490.84;;;15.96;61.11
3206;BME280;1615;53.602;11.418;2023-05-03T11:13:04;102496.88;;;16.03;61.40
3206;BME280;1615;53.602;11.418;2023-05-03T11:15:31;102488.34;;;15.99;61.55
3206;BME280;1615;53.602;11.418;2023-05-03T11:17:56;102492.50;;;15.97;61.89
3206;BME280;1615;53.602;11.418;2023-05-03T11:20:22;102488.56;;;16.03;61.37
3206;BME280;1615;53.602;11.418;2023-05-03T11:22:47;102427.50;;;15.56;57.73
3206;BME280;1615;53.602;11.418;2023-05-03T11:25:13;102491.25;;;16.18;57.69
3206;BME280;1615;53.602;11.418;2023-05-03T11:27:42;102461.91;;;16.17;54.73
3206;BME280;1615;53.602;11.418;2023-05-03T11:30:08;102409.69;;;15.72;54.35
3206;BME280;1615;53.602;11.418;2023-05-03T11:32:35;102474.03;;;16.21;54.53
3206;BME280;1615;53.602;11.418;2023-05-03T11:35:01;102479.16;;;16.37;58.82
3206;BME280;1615;53.602;11.418;2023-05-03T11:37:30;102401.69;;;16.04;62.31
3206;BME280;1615;53.602;11.418;2023-05-03T11:39:56;102480.91;;;16.62;66.51
3206;BME280;1615;53.602;11.418;2023-05-03T11:42:21;102485.28;;;16.68;62.44
3206;BME280;1615;53.602;11.418;2023-05-03T11:44:49;102471.97;;;16.70;57.52
3206;BME280;1615;53.602;11.418;2023-05-03T11:47:14;102474.19;;;16.68;59.06
3206;BME280;1615;53.602;11.418;2023-05-03T11:49:39;102459.22;;;16.69;64.64
3206;BME280;1615;53.602;11.418;2023-05-03T11:52:05;102462.41;;;16.57;56.17
3206;BME280;1615;53.602;11.418;2023-05-03T11:54:30;102473.56;;;16.47;57.73
3206;BME280;1615;53.602;11.418;2023-05-03T11:56:57;102319.22;;;15.44;58.96
3206;BME280;1615;53.602;11.418;2023-05-03T11:59:36;102451.31;;;16.24;59.06
3206;BME280;1615;53.602;11.418;2023-05-03T12:02:03;102425.41;;;16.10;58.34
3206;BME280;1615;53.602;11.418;2023-05-03T12:04:29;102464.00;;;16.30;58.74
3206;BME280;1615;53.602;11.418;2023-05-03T12:06:55;102470.31;;;16.40;60.37
3206;BME280;1615;53.602;11.418;2023-05-03T12:09:20;102486.72;;;16.32;56.10
3206;BME280;1615;53.602;11.418;2023-05-03T12:11:47;102457.09;;;15.94;54.61
3206;BME280;1615;53.602;11.418;2023-05-03T12:14:13;102438.84;;;15.93;55.10
3206;BME280;1615;53.602;11.418;2023-05-03T12:16:48;102476.09;;;16.05;54.41
3206;BME280;1615;53.602;11.418;2023-05-03T12:19:29;102474.31;;;16.24;55.89
3206;BME280;1615;53.602;11.418;2023-05-03T12:21:55;102478.97;;;16.29;54.50
3206;BME280;1615;53.602;11.418;2023-05-03T12:24:20;102476.69;;;16.36;58.45
3206;BME280;1615;53.602;11.418;2023-05-03T12:26:50;102467.84;;;16.34;55.39
3206;BME280;1615;53.602;11.418;2023-05-03T12:29:16;102464.66;;;16.50;57.23
3206;BME280;1615;53.602;11.418;2023-05-03T12:31:42;102470.94;;;16.61;55.17
3206;BME280;1615;53.602;11.418;2023-05-03T12:34:07;102461.38;;;16.77;56.20
3206;BME280;1615;53.602;11.418;2023-05-03T12:36:33;102463.63;;;16.75;59.68
3206;BME280;1615;53.602;11.418;2023-05-03T12:38:59;102463.41;;;16.90;59.90
3206;BME280;1615;53.602;11.418;2023-05-03T12:41:25;102466.09;;;17.00;56.16
3206;BME280;1615;53.602;11.418;2023-05-03T12:43:53;102459.34;;;17.06;54.03
3206;BME280;1615;53.602;11.418;2023-05-03T12:46:18;102459.97;;;17.03;52.98
3206;BME280;1615;53.602;11.418;2023-05-03T12:48:44;102456.06;;;17.27;56.01
3206;BME280;1615;53.602;11.418;2023-05-03T12:51:10;102458.53;;;17.52;55.24
3206;BME280;1615;53.602;11.418;2023-05-03T12:53:35;102462.66;;;17.55;53.57
3206;BME280;1615;53.602;11.418;2023-05-03T12:56:00;102457.16;;;17.50;52.45
3206;BME280;1615;53.602;11.418;2023-05-03T12:58:26;102432.38;;;17.35;55.09
3206;BME280;1615;53.602;11.418;2023-05-03T13:00:51;102400.25;;;16.92;55.69
3206;BME280;1615;53.602;11.418;2023-05-03T13:03:16;102445.81;;;17.28;55.73
3206;BME280;1615;53.602;11.418;2023-05-03T13:05:42;102436.38;;;17.05;55.61
3206;BME280;1615;53.602;11.418;2023-05-03T13:08:08;102436.44;;;17.00;57.77
3206;BME280;1615;53.602;11.418;2023-05-03T13:10:35;102496.16;;;16.88;56.97
3206;BME280;1615;53.602;11.418;2023-05-03T13:13:01;102428.59;;;16.84;59.04
3206;BME280;1615;53.602;11.418;2023-05-03T13:15:26;102438.75;;;16.70;57.18
3206;BME280;1615;53.602;11.418;2023-05-03T13:17:52;102442.00;;;16.48;60.93
3206;BME280;1615;53.602;11.418;2023-05-03T13:20:18;102450.88;;;16.12;58.55
3206;BME280;1615;53.602;11.418;2023-05-03T13:22:45;102439.47;;;15.85;59.87
3206;BME280;1615;53.602;11.418;2023-05-03T13:25:11;102358.00;;;15.67;60.81
3206;BME280;1615;53.602;11.418;2023-05-03T13:27:37;102414.59;;;15.85;59.42
3206;BME280;1615;53.602;11.418;2023-05-03T13:30:03;102435.59;;;15.86;58.08